Αναφορές Αεροδρομίων

 

KSJC - San Jose, California, USA
Distance from station: ΒΑ 14km
Ενημερώθηκε: 18/07/2019 07:53
Μερικώς νεφελώδης
Μερικώς νεφελώδης
 Ανεμος από ΔΒΔ
Ανεμος: ΔΒΔ 9 km/h
Θερμοκρασία: 21°C
Σημείο Δρόσου: 16°C
Υγρασία: 73%
Βαρόμετρο: 1012.5 hPa
Clouds: Μερικώς νεφελώδης
Visibility: 16 km
Cloud details: Λίγα Σύννεφα 2743 m
Μερικώς νεφελώδης 4877 m
2019/07/18 04:53 KSJC 180453Z 30005KT 10SM FEW090 SCT160 21/16 A2990 RMK AO2 SLP125 T02110156
KNUQ - Moffett Nas/Mtn, California, USA
Distance from station: Β 14km
Ενημερώθηκε: 18/07/2019 07:56
Αίθριος
Αίθριος
 Ανεμος από ΒΒΔ
Ανεμος: ΒΒΔ 9 km/h
Θερμοκρασία: 20°C
Σημείο Δρόσου: 15°C
Υγρασία: 73%
Βαρόμετρο: 1012.9 hPa
Clouds: Αίθριος
Visibility: 16 km
2019/07/18 04:56 KNUQ 180456Z 33005KT 10SM CLR 20/15 A2991 RMK AO2 SLP131 T02000150 $
 
KPAO - Palo Alto, California, USA
Distance from station: ΒΒΔ 23km
Ενημερώθηκε: 18/07/2019 06:47
NOT Current
Μερικώς νεφελώδης
Μερικώς νεφελώδης
 Ανεμος από ΒΔ
Ανεμος: ΒΔ 15 km/h
Θερμοκρασία: 19°C
Σημείο Δρόσου: 15°C
Υγρασία: 78%
Βαρόμετρο: 1011.9 hPa
Clouds: Μερικώς νεφελώδης
Visibility: 16 km
Cloud details: Μερικώς νεφελώδης 3658 m
2019/07/18 03:47 KPAO 180347Z 32008KT 10SM SCT120 19/15 A2988 RMK LAST GPS/VOR NA AT NIGHT
KRHV - San Jose/Reid, California, USA
Distance from station: ΑΒΑ 19km
Ενημερώθηκε: 18/07/2019 07:57
Αίθριος
Αίθριος
 Ανεμος από varies
Ανεμος: varies 11 km/h
Θερμοκρασία: 23°C
Σημείο Δρόσου: 12°C
Υγρασία: 50%
Βαρόμετρο: 1012.9 hPa
Clouds: Αίθριος
Visibility: 16 km
2019/07/18 04:57 KRHV 180457Z VRB06KT 10SM SKC 23/12 A2991 RMK LAST
 
KOAK - Oakland, California, USA
Distance from station: ΒΒΔ 50km
Ενημερώθηκε: 18/07/2019 07:53
Λίγα Σύννεφα
Λίγα Σύννεφα
 Ανεμος από ΒΔ
Ανεμος: ΒΔ 9 km/h
Θερμοκρασία: 17°C
Σημείο Δρόσου: 13°C
Υγρασία: 77%
Βαρόμετρο: 1013.2 hPa
Clouds: Λίγα Σύννεφα
Visibility: 16 km
Cloud details: Λίγα Σύννεφα 244 m
Λίγα Σύννεφα 6096 m
2019/07/18 04:53 KOAK 180453Z 31005KT 10SM FEW008 FEW200 17/13 A2992 RMK AO2 SLP129 T01720128 $
KSQL - San Carlos Airpo, California, USA
Distance from station: ΒΔ 34km
Ενημερώθηκε: 18/07/2019 06:47
NOT Current
Αίθριος
Αίθριος
 Ανεμος από ΒΔ
Ανεμος: ΒΔ 11 km/h
Θερμοκρασία: 20°C
Σημείο Δρόσου: 13°C
Υγρασία: 64%
Βαρόμετρο: 1012.2 hPa
Clouds: Αίθριος
Visibility: 16 km
2019/07/18 03:47 KSQL 180347Z 31006KT 10SM SKC 20/13 A2989 RMK LAST
 
KSFO - San Francisco, California, USA
Distance from station: ΒΔ 49km
Ενημερώθηκε: 18/07/2019 07:56
Λίγα Σύννεφα
Λίγα Σύννεφα
 Ανεμος από ΔΒΔ
Ανεμος: ΔΒΔ 19 km/h
Θερμοκρασία: 16°C
Σημείο Δρόσου: 12°C
Υγρασία: 77%
Βαρόμετρο: 1012.5 hPa
Clouds: Λίγα Σύννεφα
Visibility: 16 km
Cloud details: Λίγα Σύννεφα 244 m
Λίγα Σύννεφα 6096 m
2019/07/18 04:56 KSFO 180456Z 30010KT 10SM FEW008 FEW200 16/12 A2990 RMK AO2 SLP125 T01610117
KE16 - San Martin, California, USA
Distance from station: ΑΝΑ 43km
Ενημερώθηκε: 18/07/2019 07:40
Αίθριος
Αίθριος
 Ανεμος από ΝΑ
Ανεμος: ΝΑ 11 km/h
Θερμοκρασία: 16°C
Σημείο Δρόσου: 12°C
Υγρασία: 77%
Βαρόμετρο: 1014.2 hPa
Clouds: Αίθριος
Visibility: 16 km
2019/07/18 04:40 KE16 180440Z AUTO 14006KT 10SM CLR 16/12 A2995 RMK AO2
 
KWVI - Watsonville, California, USA
Distance from station: ΝΝΑ 44km
Ενημερώθηκε: 18/07/2019 07:53
Συννεφιά
Συννεφιά
 Ανεμος από Δ
Ανεμος: Δ 6 km/h
Θερμοκρασία: 14°C
Σημείο Δρόσου: 12°C
Υγρασία: 88%
Βαρόμετρο: 1014.9 hPa
Clouds: Συννεφιά
Visibility: 14 km
Cloud details: Συννεφιά 152 m
2019/07/18 04:53 KWVI 180453Z AUTO 27003KT 9SM OVC005 14/12 A2997 RMK AO2 SLP148 T01390122
KHAF - Half Moon Bay, California, USA
Distance from station: ΔΒΔ 50km
Ενημερώθηκε: 18/07/2019 08:00
Mist, Συννεφιά
Mist, Συννεφιά
 Ανεμος από Ν
Ανεμος: Ν 11 km/h
Θερμοκρασία: 13°C
Σημείο Δρόσου: 12°C
Υγρασία: 94%
Βαρόμετρο: 1014.2 hPa
Περίληψη: Mist
Clouds: Συννεφιά
Visibility: 2.4 km
Cloud details: Συννεφιά 91 m
2019/07/18 05:00 KHAF 180500Z AUTO 17006KT 1 1/2SM BR OVC003 13/12 A2995 RMK AO2
 
KHWD - Hayward, California, USA
Distance from station: Β 44km
Ενημερώθηκε: 18/07/2019 07:54
Αίθριος
Αίθριος
 Ανεμος από ΒΔ
Ανεμος: ΒΔ 9 km/h
Θερμοκρασία: 17°C
Σημείο Δρόσου: 12°C
Υγρασία: 73%
Βαρόμετρο: 1012.9 hPa
Clouds: Αίθριος
Visibility: 16 km
2019/07/18 04:54 KHWD 180454Z AUTO 32005KT 10SM CLR 17/12 A2991 RMK AO2 SLP136 T01720122
KLVK - Livermore, California, USA
Distance from station: ΒΒΑ 51km
Ενημερώθηκε: 18/07/2019 07:53
Αίθριος
Αίθριος
 Ανεμος από ΔΒΔ
Ανεμος: ΔΒΔ 9 km/h
Θερμοκρασία: 22°C
Σημείο Δρόσου: 13°C
Υγρασία: 57%
Βαρόμετρο: 1011.9 hPa
Clouds: Αίθριος
Visibility: 16 km
2019/07/18 04:53 KLVK 180453Z AUTO 29005KT 10SM CLR 22/13 A2988 RMK AO2 SLP116 T02170128